sensor_id;sensor_type;location;lat;lon;timestamp;temperature;humidity
43089;DHT22;28709;52.030;5.652;2024-01-15T00:01:50;1.50;99.90
43089;DHT22;28709;52.030;5.652;2024-01-15T00:04:15;1.50;99.90
43089;DHT22;28709;52.030;5.652;2024-01-15T00:06:41;1.50;99.90
43089;DHT22;28709;52.030;5.652;2024-01-15T00:09:07;1.50;99.90
43089;DHT22;28709;52.030;5.652;2024-01-15T00:11:32;1.50;99.90
43089;DHT22;28709;52.030;5.652;2024-01-15T00:13:58;1.50;99.90
43089;DHT22;28709;52.030;5.652;2024-01-15T00:16:24;1.50;99.90
43089;DHT22;28709;52.030;5.652;2024-01-15T00:18:49;1.40;99.90
43089;DHT22;28709;52.030;5.652;2024-01-15T00:21:15;1.40;99.90
43089;DHT22;28709;52.030;5.652;2024-01-15T00:23:44;1.30;99.90
43089;DHT22;28709;52.030;5.652;2024-01-15T00:26:10;1.30;99.90
43089;DHT22;28709;52.030;5.652;2024-01-15T00:28:36;1.30;99.90
43089;DHT22;28709;52.030;5.652;2024-01-15T00:31:02;1.20;99.90
43089;DHT22;28709;52.030;5.652;2024-01-15T00:33:28;1.20;99.90
43089;DHT22;28709;52.030;5.652;2024-01-15T00:35:53;1.20;99.90
43089;DHT22;28709;52.030;5.652;2024-01-15T00:38:19;1.20;99.90
43089;DHT22;28709;52.030;5.652;2024-01-15T00:40:45;1.10;99.90
43089;DHT22;28709;52.030;5.652;2024-01-15T00:43:11;1.10;99.90
43089;DHT22;28709;52.030;5.652;2024-01-15T00:45:37;1.10;99.90
43089;DHT22;28709;52.030;5.652;2024-01-15T00:48:03;1.10;99.90
43089;DHT22;28709;52.030;5.652;2024-01-15T00:50:29;1.10;99.90
43089;DHT22;28709;52.030;5.652;2024-01-15T00:52:54;1.10;99.90
43089;DHT22;28709;52.030;5.652;2024-01-15T00:55:20;1.00;99.90
43089;DHT22;28709;52.030;5.652;2024-01-15T00:57:46;1.00;99.90
43089;DHT22;28709;52.030;5.652;2024-01-15T01:00:12;1.00;99.90
43089;DHT22;28709;52.030;5.652;2024-01-15T01:02:37;0.90;99.90
43089;DHT22;28709;52.030;5.652;2024-01-15T01:05:03;0.90;99.90
43089;DHT22;28709;52.030;5.652;2024-01-15T01:07:29;0.90;99.90
43089;DHT22;28709;52.030;5.652;2024-01-15T01:09:55;0.90;99.90
43089;DHT22;28709;52.030;5.652;2024-01-15T01:12:21;0.90;99.90
43089;DHT22;28709;52.030;5.652;2024-01-15T01:14:46;0.80;99.90
43089;DHT22;28709;52.030;5.652;2024-01-15T01:17:12;0.80;99.90
43089;DHT22;28709;52.030;5.652;2024-01-15T01:19:37;0.80;99.90
43089;DHT22;28709;52.030;5.652;2024-01-15T01:22:03;0.80;99.90
43089;DHT22;28709;52.030;5.652;2024-01-15T01:24:29;0.90;99.90
43089;DHT22;28709;52.030;5.652;2024-01-15T01:26:55;0.90;99.90
43089;DHT22;28709;52.030;5.652;2024-01-15T01:29:20;0.90;99.90
43089;DHT22;28709;52.030;5.652;2024-01-15T01:31:46;0.90;99.90
43089;DHT22;28709;52.030;5.652;2024-01-15T01:34:14;0.90;99.90
43089;DHT22;28709;52.030;5.652;2024-01-15T01:36:40;1.00;99.90
43089;DHT22;28709;52.030;5.652;2024-01-15T01:39:06;1.00;99.90
43089;DHT22;28709;52.030;5.652;2024-01-15T01:41:31;1.00;99.90
43089;DHT22;28709;52.030;5.652;2024-01-15T01:43:57;1.00;99.90
43089;DHT22;28709;52.030;5.652;2024-01-15T01:46:24;1.00;99.90
43089;DHT22;28709;52.030;5.652;2024-01-15T01:48:51;1.00;99.90
43089;DHT22;28709;52.030;5.652;2024-01-15T01:51:18;1.00;99.90
43089;DHT22;28709;52.030;5.652;2024-01-15T01:53:45;1.00;99.90
43089;DHT22;28709;52.030;5.652;2024-01-15T01:56:11;1.10;99.90
43089;DHT22;28709;52.030;5.652;2024-01-15T01:58:37;1.00;99.90
43089;DHT22;28709;52.030;5.652;2024-01-15T02:01:03;1.00;99.90
43089;DHT22;28709;52.030;5.652;2024-01-15T02:03:30;0.90;99.90
43089;DHT22;28709;52.030;5.652;2024-01-15T02:05:56;1.00;99.90
43089;DHT22;28709;52.030;5.652;2024-01-15T02:08:22;0.90;99.90
43089;DHT22;28709;52.030;5.652;2024-01-15T02:10:48;0.90;99.90
43089;DHT22;28709;52.030;5.652;2024-01-15T02:13:14;0.90;99.90
43089;DHT22;28709;52.030;5.652;2024-01-15T02:15:40;0.90;99.90
43089;DHT22;28709;52.030;5.652;2024-01-15T02:18:06;0.90;99.90
43089;DHT22;28709;52.030;5.652;2024-01-15T02:20:35;0.90;99.90
43089;DHT22;28709;52.030;5.652;2024-01-15T02:23:12;0.90;99.90
43089;DHT22;28709;52.030;5.652;2024-01-15T02:25:42;0.90;99.90
43089;DHT22;28709;52.030;5.652;2024-01-15T02:28:14;0.80;99.90
43089;DHT22;28709;52.030;5.652;2024-01-15T02:30:41;0.90;99.90
43089;DHT22;28709;52.030;5.652;2024-01-15T02:33:07;0.90;99.90
43089;DHT22;28709;52.030;5.652;2024-01-15T02:35:33;1.00;99.90
43089;DHT22;28709;52.030;5.652;2024-01-15T02:38:05;1.10;99.90
43089;DHT22;28709;52.030;5.652;2024-01-15T02:40:31;1.10;99.90
43089;DHT22;28709;52.030;5.652;2024-01-15T02:42:56;1.20;99.90
43089;DHT22;28709;52.030;5.652;2024-01-15T02:45:23;1.30;99.90
43089;DHT22;28709;52.030;5.652;2024-01-15T02:47:49;1.30;99.90
43089;DHT22;28709;52.030;5.652;2024-01-15T02:50:15;1.30;99.90
43089;DHT22;28709;52.030;5.652;2024-01-15T02:52:41;1.30;99.90
43089;DHT22;28709;52.030;5.652;2024-01-15T02:55:07;1.20;99.90
43089;DHT22;28709;52.030;5.652;2024-01-15T02:57:33;1.20;99.90
43089;DHT22;28709;52.030;5.652;2024-01-15T02:59:58;1.20;99.90
43089;DHT22;28709;52.030;5.652;2024-01-15T03:02:24;1.20;99.90
43089;DHT22;28709;52.030;5.652;2024-01-15T03:04:49;1.20;99.90
43089;DHT22;28709;52.030;5.652;2024-01-15T03:07:15;1.10;99.90
43089;DHT22;28709;52.030;5.652;2024-01-15T03:09:41;1.10;99.90
43089;DHT22;28709;52.030;5.652;2024-01-15T03:12:07;1.20;99.90
43089;DHT22;28709;52.030;5.652;2024-01-15T03:14:33;1.10;99.90
43089;DHT22;28709;52.030;5.652;2024-01-15T03:16:59;1.20;99.90
43089;DHT22;28709;52.030;5.652;2024-01-15T03:19:26;1.20;99.90
43089;DHT22;28709;52.030;5.652;2024-01-15T03:21:51;1.20;99.90
43089;DHT22;28709;52.030;5.652;2024-01-15T03:24:17;1.20;99.90
43089;DHT22;28709;52.030;5.652;2024-01-15T03:26:43;1.10;99.90
43089;DHT22;28709;52.030;5.652;2024-01-15T03:29:08;1.10;99.90
43089;DHT22;28709;52.030;5.652;2024-01-15T03:31:34;1.10;99.90
43089;DHT22;28709;52.030;5.652;2024-01-15T03:34:00;1.10;99.90
43089;DHT22;28709;52.030;5.652;2024-01-15T03:36:25;1.10;99.90
43089;DHT22;28709;52.030;5.652;2024-01-15T03:38:51;1.10;99.90
43089;DHT22;28709;52.030;5.652;2024-01-15T03:41:17;1.00;99.90
43089;DHT22;28709;52.030;5.652;2024-01-15T03:43:42;1.00;99.90
43089;DHT22;28709;52.030;5.652;2024-01-15T03:46:08;1.00;99.90
43089;DHT22;28709;52.030;5.652;2024-01-15T03:48:34;1.00;99.90
43089;DHT22;28709;52.030;5.652;2024-01-15T03:51:00;0.90;99.90
43089;DHT22;28709;52.030;5.652;2024-01-15T03:53:26;1.00;99.90
43089;DHT22;28709;52.030;5.652;2024-01-15T03:55:52;1.00;99.90
43089;DHT22;28709;52.030;5.652;2024-01-15T03:58:17;1.00;99.90
43089;DHT22;28709;52.030;5.652;2024-01-15T04:00:43;1.00;99.90
43089;DHT22;28709;52.030;5.652;2024-01-15T04:03:09;1.00;99.90
43089;DHT22;28709;52.030;5.652;2024-01-15T04:05:35;1.10;99.90
43089;DHT22;28709;52.030;5.652;2024-01-15T04:08:00;1.10;99.90
43089;DHT22;28709;52.030;5.652;2024-01-15T04:10:26;1.20;99.90
43089;DHT22;28709;52.030;5.652;2024-01-15T04:12:52;1.20;99.90
43089;DHT22;28709;52.030;5.652;2024-01-15T04:15:18;1.30;99.90
43089;DHT22;28709;52.030;5.652;2024-01-15T04:17:43;1.30;99.90
43089;DHT22;28709;52.030;5.652;2024-01-15T04:20:09;1.30;99.90
43089;DHT22;28709;52.030;5.652;2024-01-15T04:22:35;1.40;99.90
43089;DHT22;28709;52.030;5.652;2024-01-15T04:25:01;1.30;99.90
43089;DHT22;28709;52.030;5.652;2024-01-15T04:27:27;1.30;99.90
43089;DHT22;28709;52.030;5.652;2024-01-15T04:29:53;1.20;99.90
43089;DHT22;28709;52.030;5.652;2024-01-15T04:32:19;1.20;99.90
43089;DHT22;28709;52.030;5.652;2024-01-15T04:34:45;1.10;99.90
43089;DHT22;28709;52.030;5.652;2024-01-15T04:37:10;1.00;99.90
43089;DHT22;28709;52.030;5.652;2024-01-15T04:39:36;1.00;99.90
43089;DHT22;28709;52.030;5.652;2024-01-15T04:42:02;0.90;99.90
43089;DHT22;28709;52.030;5.652;2024-01-15T04:44:28;0.90;99.90
43089;DHT22;28709;52.030;5.652;2024-01-15T04:46:54;1.00;99.90
43089;DHT22;28709;52.030;5.652;2024-01-15T04:49:20;0.90;99.90
43089;DHT22;28709;52.030;5.652;2024-01-15T04:51:45;1.00;99.90
43089;DHT22;28709;52.030;5.652;2024-01-15T04:54:11;0.90;99.90
43089;DHT22;28709;52.030;5.652;2024-01-15T04:56:37;0.90;99.90
43089;DHT22;28709;52.030;5.652;2024-01-15T04:59:03;0.90;99.90
43089;DHT22;28709;52.030;5.652;2024-01-15T05:01:32;0.90;99.90
43089;DHT22;28709;52.030;5.652;2024-01-15T05:03:58;0.90;99.90
43089;DHT22;28709;52.030;5.652;2024-01-15T05:06:24;0.90;99.90
43089;DHT22;28709;52.030;5.652;2024-01-15T05:08:49;0.90;99.90
43089;DHT22;28709;52.030;5.652;2024-01-15T05:11:15;0.90;99.90
43089;DHT22;28709;52.030;5.652;2024-01-15T05:13:41;0.90;99.90
43089;DHT22;28709;52.030;5.652;2024-01-15T05:16:06;0.80;99.90
43089;DHT22;28709;52.030;5.652;2024-01-15T05:18:32;0.90;99.90
43089;DHT22;28709;52.030;5.652;2024-01-15T05:20:58;0.90;99.90
43089;DHT22;28709;52.030;5.652;2024-01-15T05:23:23;0.90;99.90
43089;DHT22;28709;52.030;5.652;2024-01-15T05:25:49;1.00;99.90
43089;DHT22;28709;52.030;5.652;2024-01-15T05:28:15;1.00;99.90
43089;DHT22;28709;52.030;5.652;2024-01-15T05:30:40;1.00;99.90
43089;DHT22;28709;52.030;5.652;2024-01-15T05:33:06;1.10;99.90
43089;DHT22;28709;52.030;5.652;2024-01-15T05:35:33;1.10;99.90
43089;DHT22;28709;52.030;5.652;2024-01-15T05:37:59;1.10;99.90
43089;DHT22;28709;52.030;5.652;2024-01-15T05:40:24;1.00;99.90
43089;DHT22;28709;52.030;5.652;2024-01-15T05:42:50;1.00;99.90
43089;DHT22;28709;52.030;5.652;2024-01-15T05:45:16;1.10;99.90
43089;DHT22;28709;52.030;5.652;2024-01-15T05:47:42;1.10;99.90
43089;DHT22;28709;52.030;5.652;2024-01-15T05:50:09;1.10;99.90
43089;DHT22;28709;52.030;5.652;2024-01-15T05:52:35;1.10;99.90
43089;DHT22;28709;52.030;5.652;2024-01-15T05:55:01;1.20;99.90
43089;DHT22;28709;52.030;5.652;2024-01-15T05:57:27;1.20;99.90
43089;DHT22;28709;52.030;5.652;2024-01-15T05:59:53;1.20;99.90
43089;DHT22;28709;52.030;5.652;2024-01-15T06:02:19;1.10;99.90
43089;DHT22;28709;52.030;5.652;2024-01-15T06:04:45;1.10;99.90
43089;DHT22;28709;52.030;5.652;2024-01-15T06:07:10;1.20;99.90
43089;DHT22;28709;52.030;5.652;2024-01-15T06:09:36;1.20;99.90
43089;DHT22;28709;52.030;5.652;2024-01-15T06:12:02;1.20;99.90
43089;DHT22;28709;52.030;5.652;2024-01-15T06:14:28;1.20;99.90
43089;DHT22;28709;52.030;5.652;2024-01-15T06:16:53;1.20;99.90
43089;DHT22;28709;52.030;5.652;2024-01-15T06:19:19;1.20;99.90
43089;DHT22;28709;52.030;5.652;2024-01-15T06:21:44;1.20;99.90
43089;DHT22;28709;52.030;5.652;2024-01-15T06:24:10;1.20;99.90
43089;DHT22;28709;52.030;5.652;2024-01-15T06:26:36;1.20;99.90
43089;DHT22;28709;52.030;5.652;2024-01-15T06:29:01;1.20;99.90
43089;DHT22;28709;52.030;5.652;2024-01-15T06:31:28;1.20;99.90
43089;DHT22;28709;52.030;5.652;2024-01-15T06:33:55;1.20;99.90
43089;DHT22;28709;52.030;5.652;2024-01-15T06:36:20;1.20;99.90
43089;DHT22;28709;52.030;5.652;2024-01-15T06:38:46;1.10;99.90
43089;DHT22;28709;52.030;5.652;2024-01-15T06:41:11;1.10;99.90
43089;DHT22;28709;52.030;5.652;2024-01-15T06:43:37;1.00;99.90
43089;DHT22;28709;52.030;5.652;2024-01-15T06:46:03;0.90;99.90
43089;DHT22;28709;52.030;5.652;2024-01-15T06:48:28;0.90;99.90
43089;DHT22;28709;52.030;5.652;2024-01-15T06:50:54;0.90;99.90
43089;DHT22;28709;52.030;5.652;2024-01-15T06:53:20;0.90;99.90
43089;DHT22;28709;52.030;5.652;2024-01-15T06:55:46;0.90;99.90
43089;DHT22;28709;52.030;5.652;2024-01-15T06:58:12;0.90;99.90
43089;DHT22;28709;52.030;5.652;2024-01-15T07:00:37;0.90;99.90
43089;DHT22;28709;52.030;5.652;2024-01-15T07:03:03;0.90;99.90
43089;DHT22;28709;52.030;5.652;2024-01-15T07:05:29;0.90;99.90
43089;DHT22;28709;52.030;5.652;2024-01-15T07:07:56;0.90;99.90
43089;DHT22;28709;52.030;5.652;2024-01-15T07:10:21;0.90;99.90
43089;DHT22;28709;52.030;5.652;2024-01-15T07:12:47;0.90;99.90
43089;DHT22;28709;52.030;5.652;2024-01-15T07:15:13;0.90;99.90
43089;DHT22;28709;52.030;5.652;2024-01-15T07:17:38;0.90;99.90
43089;DHT22;28709;52.030;5.652;2024-01-15T07:20:06;0.90;99.90
43089;DHT22;28709;52.030;5.652;2024-01-15T07:22:33;0.90;99.90
43089;DHT22;28709;52.030;5.652;2024-01-15T07:24:59;0.90;99.90
43089;DHT22;28709;52.030;5.652;2024-01-15T07:27:24;0.80;99.90
43089;DHT22;28709;52.030;5.652;2024-01-15T07:29:50;0.90;99.90
43089;DHT22;28709;52.030;5.652;2024-01-15T07:32:16;0.90;99.90
43089;DHT22;28709;52.030;5.652;2024-01-15T07:34:42;0.90;99.90
43089;DHT22;28709;52.030;5.652;2024-01-15T07:37:08;0.90;99.90
43089;DHT22;28709;52.030;5.652;2024-01-15T07:39:33;0.90;99.90
43089;DHT22;28709;52.030;5.652;2024-01-15T07:42:00;1.00;99.90
43089;DHT22;28709;52.030;5.652;2024-01-15T07:44:26;1.00;99.90
43089;DHT22;28709;52.030;5.652;2024-01-15T07:46:52;1.00;99.90
43089;DHT22;28709;52.030;5.652;2024-01-15T07:49:17;1.00;99.90
43089;DHT22;28709;52.030;5.652;2024-01-15T07:51:43;0.90;99.90
43089;DHT22;28709;52.030;5.652;2024-01-15T07:54:09;0.90;99.90
43089;DHT22;28709;52.030;5.652;2024-01-15T07:56:53;0.90;99.90
43089;DHT22;28709;52.030;5.652;2024-01-15T07:59:19;0.90;99.90
43089;DHT22;28709;52.030;5.652;2024-01-15T08:01:44;0.80;99.90
43089;DHT22;28709;52.030;5.652;2024-01-15T08:04:10;0.90;99.90
43089;DHT22;28709;52.030;5.652;2024-01-15T08:06:38;0.90;99.90
43089;DHT22;28709;52.030;5.652;2024-01-15T08:09:04;0.90;99.90
43089;DHT22;28709;52.030;5.652;2024-01-15T08:11:29;1.00;99.90
43089;DHT22;28709;52.030;5.652;2024-01-15T08:13:56;0.90;99.90
43089;DHT22;28709;52.030;5.652;2024-01-15T08:16:21;1.00;99.90
43089;DHT22;28709;52.030;5.652;2024-01-15T08:18:47;1.00;99.90
43089;DHT22;28709;52.030;5.652;2024-01-15T08:21:13;1.00;99.90
43089;DHT22;28709;52.030;5.652;2024-01-15T08:23:39;1.00;99.90
43089;DHT22;28709;52.030;5.652;2024-01-15T08:26:05;0.90;99.90
43089;DHT22;28709;52.030;5.652;2024-01-15T08:28:30;1.00;99.90
43089;DHT22;28709;52.030;5.652;2024-01-15T08:30:56;1.00;99.90
43089;DHT22;28709;52.030;5.652;2024-01-15T08:33:22;1.00;99.90
43089;DHT22;28709;52.030;5.652;2024-01-15T08:35:47;1.00;99.90
43089;DHT22;28709;52.030;5.652;2024-01-15T08:38:13;1.00;99.90
43089;DHT22;28709;52.030;5.652;2024-01-15T08:40:39;1.00;99.90
43089;DHT22;28709;52.030;5.652;2024-01-15T08:43:04;1.00;99.90
43089;DHT22;28709;52.030;5.652;2024-01-15T08:45:32;1.00;99.90
43089;DHT22;28709;52.030;5.652;2024-01-15T08:47:58;1.00;99.90
43089;DHT22;28709;52.030;5.652;2024-01-15T08:50:23;1.00;99.90
43089;DHT22;28709;52.030;5.652;2024-01-15T08:52:49;1.00;99.90
43089;DHT22;28709;52.030;5.652;2024-01-15T08:55:15;1.10;99.90
43089;DHT22;28709;52.030;5.652;2024-01-15T08:57:40;1.00;99.90
43089;DHT22;28709;52.030;5.652;2024-01-15T09:00:06;1.10;99.90
43089;DHT22;28709;52.030;5.652;2024-01-15T09:02:35;1.10;99.90
43089;DHT22;28709;52.030;5.652;2024-01-15T09:05:01;1.10;99.90
43089;DHT22;28709;52.030;5.652;2024-01-15T09:07:27;1.10;99.90
43089;DHT22;28709;52.030;5.652;2024-01-15T09:09:53;1.20;99.90
43089;DHT22;28709;52.030;5.652;2024-01-15T09:12:19;1.20;99.90
43089;DHT22;28709;52.030;5.652;2024-01-15T09:14:46;1.30;99.90
43089;DHT22;28709;52.030;5.652;2024-01-15T09:17:12;1.40;99.90
43089;DHT22;28709;52.030;5.652;2024-01-15T09:19:38;1.40;99.90
43089;DHT22;28709;52.030;5.652;2024-01-15T09:22:07;1.40;99.90
43089;DHT22;28709;52.030;5.652;2024-01-15T09:24:32;1.40;99.90
43089;DHT22;28709;52.030;5.652;2024-01-15T09:26:58;1.30;99.90
43089;DHT22;28709;52.030;5.652;2024-01-15T09:29:24;1.40;99.90
43089;DHT22;28709;52.030;5.652;2024-01-15T09:31:52;1.40;99.90
43089;DHT22;28709;52.030;5.652;2024-01-15T09:34:18;1.50;99.90
43089;DHT22;28709;52.030;5.652;2024-01-15T09:36:44;1.50;99.90
43089;DHT22;28709;52.030;5.652;2024-01-15T09:39:10;1.40;99.90
43089;DHT22;28709;52.030;5.652;2024-01-15T09:41:39;1.40;99.90
43089;DHT22;28709;52.030;5.652;2024-01-15T09:44:05;1.30;99.90
43089;DHT22;28709;52.030;5.652;2024-01-15T09:46:33;1.20;99.90
43089;DHT22;28709;52.030;5.652;2024-01-15T09:49:00;1.20;99.90
43089;DHT22;28709;52.030;5.652;2024-01-15T09:51:28;1.10;99.90
43089;DHT22;28709;52.030;5.652;2024-01-15T09:53:57;1.10;99.90
43089;DHT22;28709;52.030;5.652;2024-01-15T09:56:24;1.10;99.90
43089;DHT22;28709;52.030;5.652;2024-01-15T09:58:50;1.30;99.90
43089;DHT22;28709;52.030;5.652;2024-01-15T10:01:20;1.80;99.90
43089;DHT22;28709;52.030;5.652;2024-01-15T10:03:46;2.60;99.90
43089;DHT22;28709;52.030;5.652;2024-01-15T10:06:15;3.40;99.90
43089;DHT22;28709;52.030;5.652;2024-01-15T10:08:48;3.60;99.90
43089;DHT22;28709;52.030;5.652;2024-01-15T10:11:14;3.60;99.90
43089;DHT22;28709;52.030;5.652;2024-01-15T10:13:40;3.30;99.90
43089;DHT22;28709;52.030;5.652;2024-01-15T10:16:06;3.00;99.90
43089;DHT22;28709;52.030;5.652;2024-01-15T10:18:32;2.70;99.90
43089;DHT22;28709;52.030;5.652;2024-01-15T10:20:58;2.50;99.90
43089;DHT22;28709;52.030;5.652;2024-01-15T10:23:24;2.30;99.90
43089;DHT22;28709;52.030;5.652;2024-01-15T10:25:50;2.20;99.90
43089;DHT22;28709;52.030;5.652;2024-01-15T10:28:19;2.30;99.90
43089;DHT22;28709;52.030;5.652;2024-01-15T10:30:45;2.70;99.90
43089;DHT22;28709;52.030;5.652;2024-01-15T10:33:10;3.40;99.90
43089;DHT22;28709;52.030;5.652;2024-01-15T10:35:38;4.20;99.90
43089;DHT22;28709;52.030;5.652;2024-01-15T10:38:05;4.20;99.90
43089;DHT22;28709;52.030;5.652;2024-01-15T10:40:32;3.80;99.90
43089;DHT22;28709;52.030;5.652;2024-01-15T10:42:57;3.40;99.90
43089;DHT22;28709;52.030;5.652;2024-01-15T10:45:23;3.10;99.90
43089;DHT22;28709;52.030;5.652;2024-01-15T10:47:50;3.10;99.90
43089;DHT22;28709;52.030;5.652;2024-01-15T10:50:16;2.90;99.90
43089;DHT22;28709;52.030;5.652;2024-01-15T10:52:42;2.80;99.90
43089;DHT22;28709;52.030;5.652;2024-01-15T10:55:11;2.60;99.90
43089;DHT22;28709;52.030;5.652;2024-01-15T10:57:37;2.30;99.90
43089;DHT22;28709;52.030;5.652;2024-01-15T11:00:06;2.10;99.90
43089;DHT22;28709;52.030;5.652;2024-01-15T11:02:36;1.80;99.90
43089;DHT22;28709;52.030;5.652;2024-01-15T11:05:03;1.60;99.90
43089;DHT22;28709;52.030;5.652;2024-01-15T11:07:30;1.60;99.90
43089;DHT22;28709;52.030;5.652;2024-01-15T11:09:56;1.60;99.90
43089;DHT22;28709;52.030;5.652;2024-01-15T11:12:24;1.70;99.90
43089;DHT22;28709;52.030;5.652;2024-01-15T11:14:50;1.70;99.90
43089;DHT22;28709;52.030;5.652;2024-01-15T11:17:17;1.70;99.90
43089;DHT22;28709;52.030;5.652;2024-01-15T11:19:48;1.80;99.90
43089;DHT22;28709;52.030;5.652;2024-01-15T11:25:19;2.00;99.90
43089;DHT22;28709;52.030;5.652;2024-01-15T11:27:51;2.40;99.90
43089;DHT22;28709;52.030;5.652;2024-01-15T11:30:17;2.50;99.90
43089;DHT22;28709;52.030;5.652;2024-01-15T11:32:45;2.60;99.90
43089;DHT22;28709;52.030;5.652;2024-01-15T11:35:13;2.60;99.90
43089;DHT22;28709;52.030;5.652;2024-01-15T11:43:02;2.20;99.90
43089;DHT22;28709;52.030;5.652;2024-01-15T11:45:30;2.30;99.90
43089;DHT22;28709;52.030;5.652;2024-01-15T11:48:11;2.30;99.90
43089;DHT22;28709;52.030;5.652;2024-01-15T11:50:44;2.40;99.90
43089;DHT22;28709;52.030;5.652;2024-01-15T11:55:44;3.40;99.90
43089;DHT22;28709;52.030;5.652;2024-01-15T11:58:11;4.60;99.90
43089;DHT22;28709;52.030;5.652;2024-01-15T12:00:42;5.60;99.90
43089;DHT22;28709;52.030;5.652;2024-01-15T12:03:09;5.90;99.90
43089;DHT22;28709;52.030;5.652;2024-01-15T12:05:39;5.70;99.90
43089;DHT22;28709;52.030;5.652;2024-01-15T12:08:07;5.80;99.90
43089;DHT22;28709;52.030;5.652;2024-01-15T12:10:39;5.80;99.90
43089;DHT22;28709;52.030;5.652;2024-01-15T12:13:15;5.50;99.90
43089;DHT22;28709;52.030;5.652;2024-01-15T12:15:43;5.30;99.90
43089;DHT22;28709;52.030;5.652;2024-01-15T12:18:11;5.30;99.90
43089;DHT22;28709;52.030;5.652;2024-01-15T12:20:37;5.10;99.90
43089;DHT22;28709;52.030;5.652;2024-01-15T12:23:03;5.00;99.90
43089;DHT22;28709;52.030;5.652;2024-01-15T12:25:30;4.60;99.90
43089;DHT22;28709;52.030;5.652;2024-01-15T12:27:56;4.40;99.90
43089;DHT22;28709;52.030;5.652;2024-01-15T12:30:22;4.20;99.90
43089;DHT22;28709;52.030;5.652;2024-01-15T12:32:48;4.10;99.90
43089;DHT22;28709;52.030;5.652;2024-01-15T12:35:14;3.80;99.90
43089;DHT22;28709;52.030;5.652;2024-01-15T12:37:42;3.90;99.90
43089;DHT22;28709;52.030;5.652;2024-01-15T12:40:09;3.90;99.90
43089;DHT22;28709;52.030;5.652;2024-01-15T12:42:36;3.90;99.90
43089;DHT22;28709;52.030;5.652;2024-01-15T12:45:03;3.90;99.90
43089;DHT22;28709;52.030;5.652;2024-01-15T12:47:30;3.70;99.90
43089;DHT22;28709;52.030;5.652;2024-01-15T12:49:57;3.50;99.90
43089;DHT22;28709;52.030;5.652;2024-01-15T12:52:23;3.30;99.90
43089;DHT22;28709;52.030;5.652;2024-01-15T12:54:49;3.20;99.90
43089;DHT22;28709;52.030;5.652;2024-01-15T12:57:16;3.30;99.90
43089;DHT22;28709;52.030;5.652;2024-01-15T12:59:46;3.50;99.90
43089;DHT22;28709;52.030;5.652;2024-01-15T13:02:14;3.60;99.90
43089;DHT22;28709;52.030;5.652;2024-01-15T13:04:40;3.50;99.90
43089;DHT22;28709;52.030;5.652;2024-01-15T13:07:06;3.30;99.90
43089;DHT22;28709;52.030;5.652;2024-01-15T13:09:32;3.10;99.90
43089;DHT22;28709;52.030;5.652;2024-01-15T13:11:59;2.90;99.90
43089;DHT22;28709;52.030;5.652;2024-01-15T13:14:24;2.70;99.90
43089;DHT22;28709;52.030;5.652;2024-01-15T13:16:50;2.60;99.90
43089;DHT22;28709;52.030;5.652;2024-01-15T13:19:16;2.50;99.90
43089;DHT22;28709;52.030;5.652;2024-01-15T13:21:42;2.50;99.90
43089;DHT22;28709;52.030;5.652;2024-01-15T13:24:08;2.50;99.90
43089;DHT22;28709;52.030;5.652;2024-01-15T13:26:35;2.50;99.90
43089;DHT22;28709;52.030;5.652;2024-01-15T13:29:04;2.40;99.90
43089;DHT22;28709;52.030;5.652;2024-01-15T13:31:30;2.30;99.90
43089;DHT22;28709;52.030;5.652;2024-01-15T13:33:56;2.20;99.90
43089;DHT22;28709;52.030;5.652;2024-01-15T13:36:22;2.10;99.90
43089;DHT22;28709;52.030;5.652;2024-01-15T13:38:49;2.10;99.90
43089;DHT22;28709;52.030;5.652;2024-01-15T13:41:15;2.10;99.90
43089;DHT22;28709;52.030;5.652;2024-01-15T13:43:45;2.00;99.90
43089;DHT22;28709;52.030;5.652;2024-01-15T13:46:10;1.90;99.90
43089;DHT22;28709;52.030;5.652;2024-01-15T13:48:36;2.20;99.90
43089;DHT22;28709;52.030;5.652;2024-01-15T13:51:02;3.10;99.90
43089;DHT22;28709;52.030;5.652;2024-01-15T13:53:28;4.30;99.90
43089;DHT22;28709;52.030;5.652;2024-01-15T13:55:53;5.40;99.90
43089;DHT22;28709;52.030;5.652;2024-01-15T13:58:19;6.20;99.90
43089;DHT22;28709;52.030;5.652;2024-01-15T14:00:47;6.80;99.90
43089;DHT22;28709;52.030;5.652;2024-01-15T14:03:12;7.20;99.90
43089;DHT22;28709;52.030;5.652;2024-01-15T14:05:38;7.10;99.90
43089;DHT22;28709;52.030;5.652;2024-01-15T14:08:04;6.80;99.90
43089;DHT22;28709;52.030;5.652;2024-01-15T14:10:30;6.00;99.90
43089;DHT22;28709;52.030;5.652;2024-01-15T14:12:55;5.10;99.90
43089;DHT22;28709;52.030;5.652;2024-01-15T14:15:21;4.30;99.90
43089;DHT22;28709;52.030;5.652;2024-01-15T14:17:47;3.80;99.90
43089;DHT22;28709;52.030;5.652;2024-01-15T14:20:13;3.50;99.90
43089;DHT22;28709;52.030;5.652;2024-01-15T14:22:39;3.30;99.90
43089;DHT22;28709;52.030;5.652;2024-01-15T14:25:04;3.10;99.90
43089;DHT22;28709;52.030;5.652;2024-01-15T14:27:30;3.00;99.90
43089;DHT22;28709;52.030;5.652;2024-01-15T14:29:56;2.90;99.90
43089;DHT22;28709;52.030;5.652;2024-01-15T14:32:21;2.70;99.90
43089;DHT22;28709;52.030;5.652;2024-01-15T14:34:47;2.60;99.90
43089;DHT22;28709;52.030;5.652;2024-01-15T14:37:13;2.60;99.90
43089;DHT22;28709;52.030;5.652;2024-01-15T14:39:39;2.60;99.90
43089;DHT22;28709;52.030;5.652;2024-01-15T14:42:04;2.50;99.90
43089;DHT22;28709;52.030;5.652;2024-01-15T14:44:30;2.50;99.90
43089;DHT22;28709;52.030;5.652;2024-01-15T14:46:56;2.40;99.90
43089;DHT22;28709;52.030;5.652;2024-01-15T14:49:24;2.40;99.90
43089;DHT22;28709;52.030;5.652;2024-01-15T14:51:50;2.40;99.90
43089;DHT22;28709;52.030;5.652;2024-01-15T14:54:16;2.30;99.90
43089;DHT22;28709;52.030;5.652;2024-01-15T14:56:41;2.30;99.90
43089;DHT22;28709;52.030;5.652;2024-01-15T14:59:08;2.30;99.90
43089;DHT22;28709;52.030;5.652;2024-01-15T15:01:34;2.40;99.90
43089;DHT22;28709;52.030;5.652;2024-01-15T15:04:00;2.40;99.90
43089;DHT22;28709;52.030;5.652;2024-01-15T15:06:25;2.40;99.90
43089;DHT22;28709;52.030;5.652;2024-01-15T15:08:53;2.30;99.90
43089;DHT22;28709;52.030;5.652;2024-01-15T15:11:25;2.20;99.90
43089;DHT22;28709;52.030;5.652;2024-01-15T15:13:51;2.10;99.90
43089;DHT22;28709;52.030;5.652;2024-01-15T15:16:17;2.10;99.90
43089;DHT22;28709;52.030;5.652;2024-01-15T15:18:43;2.00;99.90
43089;DHT22;28709;52.030;5.652;2024-01-15T15:21:09;2.00;99.90
43089;DHT22;28709;52.030;5.652;2024-01-15T15:23:35;2.10;99.90
43089;DHT22;28709;52.030;5.652;2024-01-15T15:26:01;2.10;99.90
43089;DHT22;28709;52.030;5.652;2024-01-15T15:28:26;2.10;99.90
43089;DHT22;28709;52.030;5.652;2024-01-15T15:30:52;2.00;99.90
43089;DHT22;28709;52.030;5.652;2024-01-15T15:33:18;1.90;99.90
43089;DHT22;28709;52.030;5.652;2024-01-15T15:35:44;1.80;99.90
43089;DHT22;28709;52.030;5.652;2024-01-15T15:38:10;1.70;99.90
43089;DHT22;28709;52.030;5.652;2024-01-15T15:40:35;1.70;99.90
43089;DHT22;28709;52.030;5.652;2024-01-15T15:43:01;1.60;99.90
43089;DHT22;28709;52.030;5.652;2024-01-15T15:45:27;1.60;99.90
43089;DHT22;28709;52.030;5.652;2024-01-15T15:47:53;1.50;99.90
43089;DHT22;28709;52.030;5.652;2024-01-15T15:50:18;1.50;99.90